sensor_id;sensor_type;location;lat;lon;timestamp;P1;durP1;ratioP1;P2;durP2;ratioP2
39890;SDS011;25564;53.312;9.790;2023-03-23T00:01:57;14.83;;;4.83;;
39890;SDS011;25564;53.312;9.790;2023-03-23T00:04:29;9.03;;;4.47;;
39890;SDS011;25564;53.312;9.790;2023-03-23T00:06:59;12.27;;;4.93;;
39890;SDS011;25564;53.312;9.790;2023-03-23T00:09:32;9.07;;;5.30;;
39890;SDS011;25564;53.312;9.790;2023-03-23T00:12:05;12.13;;;5.73;;
39890;SDS011;25564;53.312;9.790;2023-03-23T00:14:35;9.97;;;6.13;;
39890;SDS011;25564;53.312;9.790;2023-03-23T00:17:11;10.15;;;6.05;;
39890;SDS011;25564;53.312;9.790;2023-03-23T00:19:44;12.97;;;7.00;;
39890;SDS011;25564;53.312;9.790;2023-03-23T00:22:17;10.90;;;6.23;;
39890;SDS011;25564;53.312;9.790;2023-03-23T00:24:49;14.93;;;7.67;;
39890;SDS011;25564;53.312;9.790;2023-03-23T00:27:22;14.23;;;7.20;;
39890;SDS011;25564;53.312;9.790;2023-03-23T00:29:53;11.70;;;6.37;;
39890;SDS011;25564;53.312;9.790;2023-03-23T00:32:24;14.57;;;7.03;;
39890;SDS011;25564;53.312;9.790;2023-03-23T00:34:58;11.90;;;6.97;;
39890;SDS011;25564;53.312;9.790;2023-03-23T00:37:28;13.70;;;7.27;;
39890;SDS011;25564;53.312;9.790;2023-03-23T00:39:59;11.47;;;6.83;;
39890;SDS011;25564;53.312;9.790;2023-03-23T00:42:30;14.03;;;7.87;;
39890;SDS011;25564;53.312;9.790;2023-03-23T00:45:06;15.93;;;8.05;;
39890;SDS011;25564;53.312;9.790;2023-03-23T00:47:40;16.40;;;7.13;;
39890;SDS011;25564;53.312;9.790;2023-03-23T00:50:16;14.65;;;7.30;;
39890;SDS011;25564;53.312;9.790;2023-03-23T00:52:48;14.37;;;7.70;;
39890;SDS011;25564;53.312;9.790;2023-03-23T00:55:23;13.90;;;7.27;;
39890;SDS011;25564;53.312;9.790;2023-03-23T00:57:54;14.67;;;7.90;;
39890;SDS011;25564;53.312;9.790;2023-03-23T01:00:24;13.53;;;6.67;;
39890;SDS011;25564;53.312;9.790;2023-03-23T01:02:55;14.73;;;8.37;;
39890;SDS011;25564;53.312;9.790;2023-03-23T01:05:25;10.67;;;5.70;;
39890;SDS011;25564;53.312;9.790;2023-03-23T01:10:33;14.33;;;6.83;;
39890;SDS011;25564;53.312;9.790;2023-03-23T01:13:03;12.27;;;7.80;;
39890;SDS011;25564;53.312;9.790;2023-03-23T01:15:34;12.37;;;6.83;;
39890;SDS011;25564;53.312;9.790;2023-03-23T01:18:05;11.03;;;6.70;;
39890;SDS011;25564;53.312;9.790;2023-03-23T01:20:36;13.23;;;6.73;;
39890;SDS011;25564;53.312;9.790;2023-03-23T01:23:07;15.73;;;6.83;;
39890;SDS011;25564;53.312;9.790;2023-03-23T01:25:38;16.63;;;7.13;;
39890;SDS011;25564;53.312;9.790;2023-03-23T01:28:09;13.27;;;6.40;;
39890;SDS011;25564;53.312;9.790;2023-03-23T01:30:40;14.50;;;6.97;;
39890;SDS011;25564;53.312;9.790;2023-03-23T01:33:11;12.13;;;6.43;;
39890;SDS011;25564;53.312;9.790;2023-03-23T01:35:41;14.03;;;6.90;;
39890;SDS011;25564;53.312;9.790;2023-03-23T01:38:11;9.83;;;6.03;;
39890;SDS011;25564;53.312;9.790;2023-03-23T01:40:42;11.97;;;6.93;;
39890;SDS011;25564;53.312;9.790;2023-03-23T01:43:14;12.50;;;6.40;;
39890;SDS011;25564;53.312;9.790;2023-03-23T01:45:45;10.77;;;6.33;;
39890;SDS011;25564;53.312;9.790;2023-03-23T01:48:17;12.33;;;6.63;;
39890;SDS011;25564;53.312;9.790;2023-03-23T01:50:52;10.83;;;6.17;;
39890;SDS011;25564;53.312;9.790;2023-03-23T01:56:05;13.03;;;6.23;;
39890;SDS011;25564;53.312;9.790;2023-03-23T01:58:37;10.53;;;6.23;;
39890;SDS011;25564;53.312;9.790;2023-03-23T02:01:09;11.07;;;5.90;;
39890;SDS011;25564;53.312;9.790;2023-03-23T02:03:42;10.73;;;5.97;;
39890;SDS011;25564;53.312;9.790;2023-03-23T02:06:15;12.73;;;6.77;;
39890;SDS011;25564;53.312;9.790;2023-03-23T02:08:46;11.77;;;6.23;;
39890;SDS011;25564;53.312;9.790;2023-03-23T02:11:20;16.90;;;6.90;;
39890;SDS011;25564;53.312;9.790;2023-03-23T02:13:52;13.43;;;6.13;;
39890;SDS011;25564;53.312;9.790;2023-03-23T02:22:28;13.77;;;7.20;;
39890;SDS011;25564;53.312;9.790;2023-03-23T02:34:09;9.13;;;6.30;;
39890;SDS011;25564;53.312;9.790;2023-03-23T02:36:52;11.53;;;6.83;;
39890;SDS011;25564;53.312;9.790;2023-03-23T02:39:32;10.27;;;6.03;;
39890;SDS011;25564;53.312;9.790;2023-03-23T02:42:08;10.60;;;6.73;;
39890;SDS011;25564;53.312;9.790;2023-03-23T02:44:41;10.67;;;6.60;;
39890;SDS011;25564;53.312;9.790;2023-03-23T02:47:16;12.93;;;6.43;;
39890;SDS011;25564;53.312;9.790;2023-03-23T02:49:50;12.70;;;7.30;;
39890;SDS011;25564;53.312;9.790;2023-03-23T02:52:24;9.60;;;6.60;;
39890;SDS011;25564;53.312;9.790;2023-03-23T02:54:58;13.63;;;7.20;;
39890;SDS011;25564;53.312;9.790;2023-03-23T02:57:30;13.43;;;7.80;;
39890;SDS011;25564;53.312;9.790;2023-03-23T03:00:01;11.97;;;7.07;;
39890;SDS011;25564;53.312;9.790;2023-03-23T03:02:32;12.57;;;6.63;;
39890;SDS011;25564;53.312;9.790;2023-03-23T03:07:48;10.97;;;6.40;;
39890;SDS011;25564;53.312;9.790;2023-03-23T03:10:50;9.97;;;6.27;;
39890;SDS011;25564;53.312;9.790;2023-03-23T03:18:58;13.73;;;7.10;;
39890;SDS011;25564;53.312;9.790;2023-03-23T03:24:03;13.70;;;5.97;;
39890;SDS011;25564;53.312;9.790;2023-03-23T03:26:40;12.30;;;6.43;;
39890;SDS011;25564;53.312;9.790;2023-03-23T03:29:21;10.83;;;6.63;;
39890;SDS011;25564;53.312;9.790;2023-03-23T03:31:55;13.20;;;6.70;;
39890;SDS011;25564;53.312;9.790;2023-03-23T03:34:28;9.53;;;6.43;;
39890;SDS011;25564;53.312;9.790;2023-03-23T03:37:02;11.30;;;6.47;;
39890;SDS011;25564;53.312;9.790;2023-03-23T03:39:35;8.80;;;6.43;;
39890;SDS011;25564;53.312;9.790;2023-03-23T03:42:06;9.63;;;6.07;;
39890;SDS011;25564;53.312;9.790;2023-03-23T03:44:37;10.77;;;7.00;;
39890;SDS011;25564;53.312;9.790;2023-03-23T03:47:07;11.00;;;6.47;;
39890;SDS011;25564;53.312;9.790;2023-03-23T03:49:38;10.63;;;6.63;;
39890;SDS011;25564;53.312;9.790;2023-03-23T03:52:08;14.13;;;7.10;;
39890;SDS011;25564;53.312;9.790;2023-03-23T03:54:39;11.37;;;6.53;;
39890;SDS011;25564;53.312;9.790;2023-03-23T03:57:10;13.50;;;7.23;;
39890;SDS011;25564;53.312;9.790;2023-03-23T03:59:41;11.00;;;7.30;;
39890;SDS011;25564;53.312;9.790;2023-03-23T04:02:12;10.30;;;6.93;;
39890;SDS011;25564;53.312;9.790;2023-03-23T04:04:48;11.87;;;6.93;;
39890;SDS011;25564;53.312;9.790;2023-03-23T04:07:19;12.03;;;6.80;;
39890;SDS011;25564;53.312;9.790;2023-03-23T04:09:51;14.07;;;6.87;;
39890;SDS011;25564;53.312;9.790;2023-03-23T04:12:22;12.47;;;6.93;;
39890;SDS011;25564;53.312;9.790;2023-03-23T04:14:52;11.27;;;6.93;;
39890;SDS011;25564;53.312;9.790;2023-03-23T04:17:22;15.30;;;7.50;;
39890;SDS011;25564;53.312;9.790;2023-03-23T04:19:56;11.97;;;7.07;;
39890;SDS011;25564;53.312;9.790;2023-03-23T04:22:27;14.50;;;7.47;;
39890;SDS011;25564;53.312;9.790;2023-03-23T04:25:00;12.97;;;6.03;;
39890;SDS011;25564;53.312;9.790;2023-03-23T04:27:34;10.67;;;6.60;;
39890;SDS011;25564;53.312;9.790;2023-03-23T04:30:05;13.07;;;6.90;;
39890;SDS011;25564;53.312;9.790;2023-03-23T04:32:36;11.67;;;5.90;;
39890;SDS011;25564;53.312;9.790;2023-03-23T04:35:11;9.70;;;6.00;;
39890;SDS011;25564;53.312;9.790;2023-03-23T04:37:44;14.43;;;6.30;;
39890;SDS011;25564;53.312;9.790;2023-03-23T04:40:15;9.43;;;6.40;;
39890;SDS011;25564;53.312;9.790;2023-03-23T04:42:46;10.53;;;6.17;;
39890;SDS011;25564;53.312;9.790;2023-03-23T04:45:19;11.63;;;6.47;;
39890;SDS011;25564;53.312;9.790;2023-03-23T04:47:52;9.63;;;6.00;;
39890;SDS011;25564;53.312;9.790;2023-03-23T04:50:24;9.57;;;6.23;;
39890;SDS011;25564;53.312;9.790;2023-03-23T04:52:58;9.33;;;5.77;;
39890;SDS011;25564;53.312;9.790;2023-03-23T04:55:34;10.88;;;6.05;;
39890;SDS011;25564;53.312;9.790;2023-03-23T04:58:06;10.93;;;5.47;;
39890;SDS011;25564;53.312;9.790;2023-03-23T05:00:38;9.97;;;5.50;;
39890;SDS011;25564;53.312;9.790;2023-03-23T05:03:12;8.10;;;4.73;;
39890;SDS011;25564;53.312;9.790;2023-03-23T05:05:46;7.03;;;4.40;;
39890;SDS011;25564;53.312;9.790;2023-03-23T05:08:22;10.70;;;5.10;;
39890;SDS011;25564;53.312;9.790;2023-03-23T05:10:55;8.43;;;4.40;;
39890;SDS011;25564;53.312;9.790;2023-03-23T05:13:27;9.60;;;5.27;;
39890;SDS011;25564;53.312;9.790;2023-03-23T05:16:02;8.80;;;4.60;;
39890;SDS011;25564;53.312;9.790;2023-03-23T05:18:33;11.33;;;4.90;;
39890;SDS011;25564;53.312;9.790;2023-03-23T05:21:04;9.90;;;5.00;;
39890;SDS011;25564;53.312;9.790;2023-03-23T05:23:34;7.40;;;4.37;;
39890;SDS011;25564;53.312;9.790;2023-03-23T05:26:05;8.17;;;4.20;;
39890;SDS011;25564;53.312;9.790;2023-03-23T05:28:37;7.70;;;4.03;;
39890;SDS011;25564;53.312;9.790;2023-03-23T05:31:07;11.37;;;5.47;;
39890;SDS011;25564;53.312;9.790;2023-03-23T05:33:37;9.43;;;4.83;;
39890;SDS011;25564;53.312;9.790;2023-03-23T05:36:08;7.57;;;4.20;;
39890;SDS011;25564;53.312;9.790;2023-03-23T05:38:43;11.07;;;3.93;;
39890;SDS011;25564;53.312;9.790;2023-03-23T05:41:15;7.47;;;4.07;;
39890;SDS011;25564;53.312;9.790;2023-03-23T05:43:45;8.90;;;4.23;;
39890;SDS011;25564;53.312;9.790;2023-03-23T05:46:16;7.97;;;4.00;;
39890;SDS011;25564;53.312;9.790;2023-03-23T05:48:46;10.53;;;4.03;;
39890;SDS011;25564;53.312;9.790;2023-03-23T05:51:16;7.73;;;4.07;;
39890;SDS011;25564;53.312;9.790;2023-03-23T05:53:47;7.50;;;3.83;;
39890;SDS011;25564;53.312;9.790;2023-03-23T05:56:18;7.50;;;3.63;;
39890;SDS011;25564;53.312;9.790;2023-03-23T05:58:48;7.20;;;3.87;;
39890;SDS011;25564;53.312;9.790;2023-03-23T06:01:18;6.40;;;3.50;;
39890;SDS011;25564;53.312;9.790;2023-03-23T06:03:49;4.57;;;3.03;;
39890;SDS011;25564;53.312;9.790;2023-03-23T06:06:21;5.80;;;3.10;;
39890;SDS011;25564;53.312;9.790;2023-03-23T06:08:51;5.57;;;3.07;;
39890;SDS011;25564;53.312;9.790;2023-03-23T06:11:22;9.20;;;2.43;;
39890;SDS011;25564;53.312;9.790;2023-03-23T06:13:53;6.50;;;2.90;;
39890;SDS011;25564;53.312;9.790;2023-03-23T06:16:24;7.60;;;3.40;;
39890;SDS011;25564;53.312;9.790;2023-03-23T06:18:55;5.20;;;3.10;;
39890;SDS011;25564;53.312;9.790;2023-03-23T06:21:26;5.20;;;2.67;;
39890;SDS011;25564;53.312;9.790;2023-03-23T06:23:57;5.60;;;2.67;;
39890;SDS011;25564;53.312;9.790;2023-03-23T06:26:32;4.43;;;2.30;;
39890;SDS011;25564;53.312;9.790;2023-03-23T06:29:05;4.28;;;2.47;;
39890;SDS011;25564;53.312;9.790;2023-03-23T06:31:47;4.37;;;2.40;;
39890;SDS011;25564;53.312;9.790;2023-03-23T06:34:21;6.87;;;2.87;;
39890;SDS011;25564;53.312;9.790;2023-03-23T06:36:51;5.67;;;2.30;;
39890;SDS011;25564;53.312;9.790;2023-03-23T06:39:22;4.73;;;2.50;;
39890;SDS011;25564;53.312;9.790;2023-03-23T06:41:54;5.57;;;2.40;;
39890;SDS011;25564;53.312;9.790;2023-03-23T06:44:26;4.17;;;2.30;;
39890;SDS011;25564;53.312;9.790;2023-03-23T06:46:57;6.20;;;2.57;;
39890;SDS011;25564;53.312;9.790;2023-03-23T06:49:27;4.20;;;2.23;;
39890;SDS011;25564;53.312;9.790;2023-03-23T06:51:58;4.33;;;2.10;;
39890;SDS011;25564;53.312;9.790;2023-03-23T06:54:30;5.83;;;2.60;;
39890;SDS011;25564;53.312;9.790;2023-03-23T06:57:00;3.40;;;2.40;;
39890;SDS011;25564;53.312;9.790;2023-03-23T06:59:31;6.47;;;2.80;;
39890;SDS011;25564;53.312;9.790;2023-03-23T07:02:01;3.90;;;2.57;;
39890;SDS011;25564;53.312;9.790;2023-03-23T07:04:32;7.40;;;2.67;;
39890;SDS011;25564;53.312;9.790;2023-03-23T07:07:03;4.07;;;2.23;;
39890;SDS011;25564;53.312;9.790;2023-03-23T07:09:33;3.03;;;2.13;;
39890;SDS011;25564;53.312;9.790;2023-03-23T07:12:03;6.23;;;2.27;;
39890;SDS011;25564;53.312;9.790;2023-03-23T07:14:35;6.20;;;2.20;;
39890;SDS011;25564;53.312;9.790;2023-03-23T07:17:06;7.13;;;2.37;;
39890;SDS011;25564;53.312;9.790;2023-03-23T07:19:37;4.73;;;2.40;;
39890;SDS011;25564;53.312;9.790;2023-03-23T07:22:08;5.70;;;2.13;;
39890;SDS011;25564;53.312;9.790;2023-03-23T07:24:38;3.33;;;2.10;;
39890;SDS011;25564;53.312;9.790;2023-03-23T07:27:08;3.20;;;1.93;;
39890;SDS011;25564;53.312;9.790;2023-03-23T07:29:39;5.30;;;2.70;;
39890;SDS011;25564;53.312;9.790;2023-03-23T07:32:10;3.70;;;2.50;;
39890;SDS011;25564;53.312;9.790;2023-03-23T07:34:41;6.93;;;2.70;;
39890;SDS011;25564;53.312;9.790;2023-03-23T07:37:12;3.90;;;2.60;;
39890;SDS011;25564;53.312;9.790;2023-03-23T07:39:42;4.43;;;2.77;;
39890;SDS011;25564;53.312;9.790;2023-03-23T07:42:13;4.93;;;2.80;;
39890;SDS011;25564;53.312;9.790;2023-03-23T07:44:43;3.73;;;2.50;;
39890;SDS011;25564;53.312;9.790;2023-03-23T07:47:14;3.73;;;2.60;;
39890;SDS011;25564;53.312;9.790;2023-03-23T07:49:44;9.07;;;3.00;;
39890;SDS011;25564;53.312;9.790;2023-03-23T07:52:14;5.50;;;2.57;;
39890;SDS011;25564;53.312;9.790;2023-03-23T07:54:45;4.07;;;2.47;;
39890;SDS011;25564;53.312;9.790;2023-03-23T07:57:15;3.70;;;2.70;;
39890;SDS011;25564;53.312;9.790;2023-03-23T07:59:46;4.70;;;2.87;;
39890;SDS011;25564;53.312;9.790;2023-03-23T08:02:16;3.30;;;2.20;;
39890;SDS011;25564;53.312;9.790;2023-03-23T08:04:47;4.00;;;2.53;;
39890;SDS011;25564;53.312;9.790;2023-03-23T08:07:17;5.30;;;2.70;;
39890;SDS011;25564;53.312;9.790;2023-03-23T08:09:49;3.63;;;3.03;;
39890;SDS011;25564;53.312;9.790;2023-03-23T08:12:19;5.57;;;2.70;;
39890;SDS011;25564;53.312;9.790;2023-03-23T08:14:49;6.00;;;2.93;;
39890;SDS011;25564;53.312;9.790;2023-03-23T08:17:21;4.20;;;2.60;;
39890;SDS011;25564;53.312;9.790;2023-03-23T08:19:52;5.47;;;3.20;;
39890;SDS011;25564;53.312;9.790;2023-03-23T08:22:22;5.73;;;3.00;;
39890;SDS011;25564;53.312;9.790;2023-03-23T08:24:52;4.27;;;2.40;;
39890;SDS011;25564;53.312;9.790;2023-03-23T08:27:23;5.80;;;2.90;;
39890;SDS011;25564;53.312;9.790;2023-03-23T08:29:53;2.83;;;2.00;;
39890;SDS011;25564;53.312;9.790;2023-03-23T08:32:23;3.13;;;1.20;;
39890;SDS011;25564;53.312;9.790;2023-03-23T08:34:54;2.97;;;1.30;;
39890;SDS011;25564;53.312;9.790;2023-03-23T08:37:24;2.27;;;1.30;;
39890;SDS011;25564;53.312;9.790;2023-03-23T08:39:55;2.40;;;1.60;;
39890;SDS011;25564;53.312;9.790;2023-03-23T08:42:27;3.33;;;1.77;;
39890;SDS011;25564;53.312;9.790;2023-03-23T08:44:57;3.33;;;1.80;;
39890;SDS011;25564;53.312;9.790;2023-03-23T08:47:27;2.07;;;1.20;;
39890;SDS011;25564;53.312;9.790;2023-03-23T08:49:58;2.40;;;1.30;;
39890;SDS011;25564;53.312;9.790;2023-03-23T08:52:28;2.40;;;0.77;;
39890;SDS011;25564;53.312;9.790;2023-03-23T08:54:59;2.17;;;0.77;;
39890;SDS011;25564;53.312;9.790;2023-03-23T08:57:29;3.23;;;0.90;;
39890;SDS011;25564;53.312;9.790;2023-03-23T09:00:00;1.77;;;0.83;;
39890;SDS011;25564;53.312;9.790;2023-03-23T09:02:38;3.47;;;1.40;;
39890;SDS011;25564;53.312;9.790;2023-03-23T09:05:09;6.00;;;2.23;;
39890;SDS011;25564;53.312;9.790;2023-03-23T09:07:41;3.63;;;2.13;;
39890;SDS011;25564;53.312;9.790;2023-03-23T09:10:13;5.33;;;1.50;;
39890;SDS011;25564;53.312;9.790;2023-03-23T09:12:45;5.03;;;1.87;;
39890;SDS011;25564;53.312;9.790;2023-03-23T09:15:17;2.70;;;1.10;;
39890;SDS011;25564;53.312;9.790;2023-03-23T09:17:49;6.00;;;1.60;;
39890;SDS011;25564;53.312;9.790;2023-03-23T09:20:23;5.37;;;2.53;;
39890;SDS011;25564;53.312;9.790;2023-03-23T09:22:56;5.50;;;2.37;;
39890;SDS011;25564;53.312;9.790;2023-03-23T09:25:27;5.20;;;2.10;;
39890;SDS011;25564;53.312;9.790;2023-03-23T09:27:58;6.90;;;1.90;;
39890;SDS011;25564;53.312;9.790;2023-03-23T09:30:30;7.17;;;1.77;;
39890;SDS011;25564;53.312;9.790;2023-03-23T09:33:03;6.40;;;1.97;;
39890;SDS011;25564;53.312;9.790;2023-03-23T09:35:35;5.77;;;1.97;;
39890;SDS011;25564;53.312;9.790;2023-03-23T09:38:09;5.00;;;1.60;;
39890;SDS011;25564;53.312;9.790;2023-03-23T09:40:47;7.90;;;2.00;;
39890;SDS011;25564;53.312;9.790;2023-03-23T09:43:28;4.90;;;1.80;;
39890;SDS011;25564;53.312;9.790;2023-03-23T09:48:50;3.53;;;1.50;;
39890;SDS011;25564;53.312;9.790;2023-03-23T09:51:29;5.73;;;1.90;;
39890;SDS011;25564;53.312;9.790;2023-03-23T09:54:17;4.27;;;1.90;;
39890;SDS011;25564;53.312;9.790;2023-03-23T09:56:51;7.63;;;2.73;;
39890;SDS011;25564;53.312;9.790;2023-03-23T09:59:42;5.87;;;1.70;;
39890;SDS011;25564;53.312;9.790;2023-03-23T10:02:18;6.90;;;2.30;;
39890;SDS011;25564;53.312;9.790;2023-03-23T10:04:54;5.73;;;1.80;;
39890;SDS011;25564;53.312;9.790;2023-03-23T10:07:29;6.13;;;2.30;;
39890;SDS011;25564;53.312;9.790;2023-03-23T10:10:00;4.37;;;2.50;;
39890;SDS011;25564;53.312;9.790;2023-03-23T10:12:42;13.47;;;3.27;;
39890;SDS011;25564;53.312;9.790;2023-03-23T10:15:21;6.33;;;2.13;;
39890;SDS011;25564;53.312;9.790;2023-03-23T10:18:00;8.13;;;1.70;;
39890;SDS011;25564;53.312;9.790;2023-03-23T10:25:55;15.90;;;2.90;;
39890;SDS011;25564;53.312;9.790;2023-03-23T10:28:51;8.63;;;2.10;;
39890;SDS011;25564;53.312;9.790;2023-03-23T10:31:28;10.47;;;2.47;;
39890;SDS011;25564;53.312;9.790;2023-03-23T10:34:08;5.83;;;2.23;;
39890;SDS011;25564;53.312;9.790;2023-03-23T10:36:51;8.37;;;2.53;;
39890;SDS011;25564;53.312;9.790;2023-03-23T10:42:21;6.87;;;2.30;;
39890;SDS011;25564;53.312;9.790;2023-03-23T10:44:57;6.37;;;2.83;;
39890;SDS011;25564;53.312;9.790;2023-03-23T10:47:29;9.20;;;2.80;;
39890;SDS011;25564;53.312;9.790;2023-03-23T10:50:01;7.33;;;2.30;;
39890;SDS011;25564;53.312;9.790;2023-03-23T10:52:36;9.53;;;2.47;;
39890;SDS011;25564;53.312;9.790;2023-03-23T10:55:15;8.20;;;2.43;;
39890;SDS011;25564;53.312;9.790;2023-03-23T10:58:00;6.97;;;2.30;;
39890;SDS011;25564;53.312;9.790;2023-03-23T11:00:33;8.23;;;2.38;;
39890;SDS011;25564;53.312;9.790;2023-03-23T11:05:48;8.30;;;2.13;;
39890;SDS011;25564;53.312;9.790;2023-03-23T11:08:23;6.18;;;2.63;;
39890;SDS011;25564;53.312;9.790;2023-03-23T11:13:29;6.97;;;2.07;;
39890;SDS011;25564;53.312;9.790;2023-03-23T11:16:01;7.37;;;2.73;;
39890;SDS011;25564;53.312;9.790;2023-03-23T11:18:39;6.33;;;2.70;;
39890;SDS011;25564;53.312;9.790;2023-03-23T11:21:12;5.60;;;2.53;;
39890;SDS011;25564;53.312;9.790;2023-03-23T11:23:47;3.87;;;1.83;;
39890;SDS011;25564;53.312;9.790;2023-03-23T11:29:05;6.00;;;1.80;;
39890;SDS011;25564;53.312;9.790;2023-03-23T11:31:47;3.80;;;1.53;;
39890;SDS011;25564;53.312;9.790;2023-03-23T11:34:26;4.40;;;1.83;;
39890;SDS011;25564;53.312;9.790;2023-03-23T11:37:07;5.57;;;2.03;;
39890;SDS011;25564;53.312;9.790;2023-03-23T11:40:29;8.50;;;2.43;;
39890;SDS011;25564;53.312;9.790;2023-03-23T11:42:45;6.20;;;2.30;;
39890;SDS011;25564;53.312;9.790;2023-03-23T11:45:33;6.27;;;2.33;;
39890;SDS011;25564;53.312;9.790;2023-03-23T11:48:20;3.47;;;1.80;;
39890;SDS011;25564;53.312;9.790;2023-03-23T11:54:04;10.83;;;2.00;;
39890;SDS011;25564;53.312;9.790;2023-03-23T11:57:09;8.23;;;2.40;;
39890;SDS011;25564;53.312;9.790;2023-03-23T11:59:41;5.07;;;2.33;;
39890;SDS011;25564;53.312;9.790;2023-03-23T12:07:44;12.98;;;3.55;;
39890;SDS011;25564;53.312;9.790;2023-03-23T12:10:41;8.70;;;3.20;;
39890;SDS011;25564;53.312;9.790;2023-03-23T12:13:29;8.52;;;2.92;;
39890;SDS011;25564;53.312;9.790;2023-03-23T12:16:30;7.67;;;2.50;;
39890;SDS011;25564;53.312;9.790;2023-03-23T12:24:41;9.37;;;3.10;;
39890;SDS011;25564;53.312;9.790;2023-03-23T12:27:33;6.77;;;3.00;;
39890;SDS011;25564;53.312;9.790;2023-03-23T12:32:58;4.90;;;2.53;;
39890;SDS011;25564;53.312;9.790;2023-03-23T12:41:54;7.43;;;2.53;;
39890;SDS011;25564;53.312;9.790;2023-03-23T12:44:53;7.70;;;2.10;;
39890;SDS011;25564;53.312;9.790;2023-03-23T12:47:40;5.93;;;2.00;;
39890;SDS011;25564;53.312;9.790;2023-03-23T12:50:26;7.93;;;2.37;;
39890;SDS011;25564;53.312;9.790;2023-03-23T12:53:05;5.40;;;2.03;;
39890;SDS011;25564;53.312;9.790;2023-03-23T12:55:53;4.60;;;1.80;;
39890;SDS011;25564;53.312;9.790;2023-03-23T12:58:41;7.97;;;2.45;;
39890;SDS011;25564;53.312;9.790;2023-03-23T13:01:17;5.13;;;2.00;;
39890;SDS011;25564;53.312;9.790;2023-03-23T13:06:32;5.10;;;1.63;;
39890;SDS011;25564;53.312;9.790;2023-03-23T13:12:02;5.50;;;2.70;;
39890;SDS011;25564;53.312;9.790;2023-03-23T13:14:44;5.70;;;1.70;;
39890;SDS011;25564;53.312;9.790;2023-03-23T13:22:46;4.33;;;1.73;;
39890;SDS011;25564;53.312;9.790;2023-03-23T13:28:04;2.87;;;1.60;;
39890;SDS011;25564;53.312;9.790;2023-03-23T13:30:35;4.07;;;1.60;;
39890;SDS011;25564;53.312;9.790;2023-03-23T13:33:06;4.20;;;1.67;;
39890;SDS011;25564;53.312;9.790;2023-03-23T13:35:41;3.93;;;1.57;;
39890;SDS011;25564;53.312;9.790;2023-03-23T13:38:13;2.93;;;1.60;;
39890;SDS011;25564;53.312;9.790;2023-03-23T13:40:51;2.80;;;1.60;;
39890;SDS011;25564;53.312;9.790;2023-03-23T13:43:27;3.83;;;1.60;;
39890;SDS011;25564;53.312;9.790;2023-03-23T13:46:07;4.50;;;2.10;;
39890;SDS011;25564;53.312;9.790;2023-03-23T13:48:50;6.10;;;2.00;;
39890;SDS011;25564;53.312;9.790;2023-03-23T13:51:36;2.97;;;1.27;;
39890;SDS011;25564;53.312;9.790;2023-03-23T13:56:59;3.37;;;1.43;;
39890;SDS011;25564;53.312;9.790;2023-03-23T13:59:35;5.43;;;1.47;;
39890;SDS011;25564;53.312;9.790;2023-03-23T14:07:55;4.17;;;1.20;;
39890;SDS011;25564;53.312;9.790;2023-03-23T14:13:43;2.30;;;1.30;;
39890;SDS011;25564;53.312;9.790;2023-03-23T14:16:23;2.80;;;1.30;;
39890;SDS011;25564;53.312;9.790;2023-03-23T14:18:57;4.43;;;1.80;;
39890;SDS011;25564;53.312;9.790;2023-03-23T14:21:37;6.33;;;2.03;;
39890;SDS011;25564;53.312;9.790;2023-03-23T14:24:15;5.97;;;1.67;;
39890;SDS011;25564;53.312;9.790;2023-03-23T14:26:48;3.45;;;1.70;;
39890;SDS011;25564;53.312;9.790;2023-03-23T14:29:22;3.37;;;1.17;;
39890;SDS011;25564;53.312;9.790;2023-03-23T14:31:54;2.88;;;1.63;;
39890;SDS011;25564;53.312;9.790;2023-03-23T14:34:28;2.45;;;1.05;;
39890;SDS011;25564;53.312;9.790;2023-03-23T14:37:01;5.20;;;2.20;;
39890;SDS011;25564;53.312;9.790;2023-03-23T14:39:33;4.67;;;1.07;;
39890;SDS011;25564;53.312;9.790;2023-03-23T14:42:06;2.87;;;1.50;;
39890;SDS011;25564;53.312;9.790;2023-03-23T14:44:46;2.78;;;0.90;;
39890;SDS011;25564;53.312;9.790;2023-03-23T14:47:21;3.57;;;1.27;;
39890;SDS011;25564;53.312;9.790;2023-03-23T14:49:55;2.40;;;1.07;;
39890;SDS011;25564;53.312;9.790;2023-03-23T14:52:28;4.53;;;1.70;;
39890;SDS011;25564;53.312;9.790;2023-03-23T14:55:12;2.87;;;1.03;;
39890;SDS011;25564;53.312;9.790;2023-03-23T14:57:46;2.27;;;1.33;;
39890;SDS011;25564;53.312;9.790;2023-03-23T15:02:53;4.93;;;1.43;;
39890;SDS011;25564;53.312;9.790;2023-03-23T15:05:32;2.00;;;1.00;;
39890;SDS011;25564;53.312;9.790;2023-03-23T15:08:07;5.17;;;1.20;;
39890;SDS011;25564;53.312;9.790;2023-03-23T15:10:42;4.77;;;2.43;;
39890;SDS011;25564;53.312;9.790;2023-03-23T15:13:22;5.20;;;1.73;;
39890;SDS011;25564;53.312;9.790;2023-03-23T15:16:00;3.40;;;1.50;;
39890;SDS011;25564;53.312;9.790;2023-03-23T15:18:35;4.73;;;1.30;;
39890;SDS011;25564;53.312;9.790;2023-03-23T15:21:08;5.28;;;1.23;;
39890;SDS011;25564;53.312;9.790;2023-03-23T15:23:42;5.97;;;1.07;;
39890;SDS011;25564;53.312;9.790;2023-03-23T15:26:24;3.87;;;1.30;;
39890;SDS011;25564;53.312;9.790;2023-03-23T15:29:21;5.17;;;2.03;;
39890;SDS011;25564;53.312;9.790;2023-03-23T15:31:54;10.03;;;1.97;;
39890;SDS011;25564;53.312;9.790;2023-03-23T15:34:32;5.03;;;1.80;;
39890;SDS011;25564;53.312;9.790;2023-03-23T15:37:26;2.13;;;1.30;;
39890;SDS011;25564;53.312;9.790;2023-03-23T15:39:58;2.57;;;1.57;;
39890;SDS011;25564;53.312;9.790;2023-03-23T15:42:30;5.87;;;2.13;;
39890;SDS011;25564;53.312;9.790;2023-03-23T15:50:16;6.03;;;1.47;;
39890;SDS011;25564;53.312;9.790;2023-03-23T15:53:15;3.23;;;1.23;;
39890;SDS011;25564;53.312;9.790;2023-03-23T15:55:50;2.57;;;1.30;;
39890;SDS011;25564;53.312;9.790;2023-03-23T15:58:20;3.30;;;0.80;;
39890;SDS011;25564;53.312;9.790;2023-03-23T16:00:52;4.37;;;1.10;;
39890;SDS011;25564;53.312;9.790;2023-03-23T16:03:33;4.13;;;1.37;;
39890;SDS011;25564;53.312;9.790;2023-03-23T16:06:10;3.63;;;1.13;;
39890;SDS011;25564;53.312;9.790;2023-03-23T16:08:55;4.10;;;1.30;;
39890;SDS011;25564;53.312;9.790;2023-03-23T16:11:27;5.03;;;1.67;;
39890;SDS011;25564;53.312;9.790;2023-03-23T16:14:00;5.13;;;1.37;;
39890;SDS011;25564;53.312;9.790;2023-03-23T16:16:36;2.90;;;1.37;;
39890;SDS011;25564;53.312;9.790;2023-03-23T16:19:21;3.33;;;1.43;;
39890;SDS011;25564;53.312;9.790;2023-03-23T16:21:54;3.63;;;1.43;;
39890;SDS011;25564;53.312;9.790;2023-03-23T16:24:26;5.07;;;1.40;;
39890;SDS011;25564;53.312;9.790;2023-03-23T16:26:57;7.27;;;1.90;;
39890;SDS011;25564;53.312;9.790;2023-03-23T16:29:28;1.53;;;1.00;;
39890;SDS011;25564;53.312;9.790;2023-03-23T16:32:04;3.38;;;1.52;;
39890;SDS011;25564;53.312;9.790;2023-03-23T16:34:36;4.70;;;1.83;;
39890;SDS011;25564;53.312;9.790;2023-03-23T16:37:09;3.17;;;1.77;;
39890;SDS011;25564;53.312;9.790;2023-03-23T16:39:41;3.40;;;1.53;;
39890;SDS011;25564;53.312;9.790;2023-03-23T16:42:13;2.07;;;0.83;;
39890;SDS011;25564;53.312;9.790;2023-03-23T16:44:44;4.30;;;1.17;;
39890;SDS011;25564;53.312;9.790;2023-03-23T16:47:16;4.20;;;1.40;;
39890;SDS011;25564;53.312;9.790;2023-03-23T16:49:49;4.93;;;1.27;;
39890;SDS011;25564;53.312;9.790;2023-03-23T16:52:21;4.37;;;1.50;;
39890;SDS011;25564;53.312;9.790;2023-03-23T16:54:52;2.33;;;1.30;;
39890;SDS011;25564;53.312;9.790;2023-03-23T16:57:24;2.93;;;1.37;;
39890;SDS011;25564;53.312;9.790;2023-03-23T16:59:56;5.27;;;1.40;;
39890;SDS011;25564;53.312;9.790;2023-03-23T17:02:28;5.73;;;1.40;;
39890;SDS011;25564;53.312;9.790;2023-03-23T17:05:00;3.90;;;1.47;;
39890;SDS011;25564;53.312;9.790;2023-03-23T17:07:32;3.50;;;1.50;;
39890;SDS011;25564;53.312;9.790;2023-03-23T17:10:04;5.13;;;1.87;;
39890;SDS011;25564;53.312;9.790;2023-03-23T17:12:38;5.13;;;2.63;;